TimeCDT,TemperatureF,Dew PointF,Humidity,Sea Level PressureIn,VisibilityMPH,Wind Direction,Wind SpeedMPH,Gust SpeedMPH,PrecipitationIn,Events,Conditions,WindDirDegrees,DateUTC
12:53 AM,68.0,53.1,59,29.66,10.0,South,24.2,33.4,N/A,,Clear,170,2013-04-30 05:53:00
1:53 AM,66.9,57.0,70,29.66,10.0,South,25.3,34.5,N/A,,Clear,170,2013-04-30 06:53:00
2:53 AM,66.0,57.9,75,29.65,10.0,South,23.0,29.9,N/A,,Clear,180,2013-04-30 07:53:00
3:53 AM,64.9,57.9,78,29.65,10.0,South,23.0,33.4,N/A,,Clear,180,2013-04-30 08:53:00
4:53 AM,63.0,57.9,84,29.66,10.0,South,18.4,24.2,N/A,,Clear,180,2013-04-30 09:53:00
5:53 AM,63.0,57.0,81,29.65,10.0,South,20.7,28.8,N/A,,Clear,180,2013-04-30 10:53:00
6:53 AM,62.1,57.0,84,29.67,10.0,South,17.3,-,N/A,,Clear,170,2013-04-30 11:53:00
7:53 AM,62.1,57.0,84,29.68,10.0,South,16.1,-,N/A,,Clear,170,2013-04-30 12:53:00
8:53 AM,64.9,57.0,75,29.69,10.0,South,18.4,25.3,N/A,,Clear,180,2013-04-30 13:53:00
9:53 AM,69.1,57.9,68,29.68,10.0,South,20.7,-,N/A,,Clear,190,2013-04-30 14:53:00
10:53 AM,73.0,59.0,61,29.68,10.0,South,23.0,28.8,N/A,,Clear,180,2013-04-30 15:53:00
11:53 AM,78.1,59.0,52,29.67,10.0,South,20.7,25.3,N/A,,Clear,190,2013-04-30 16:53:00
12:53 PM,82.0,57.0,42,29.65,10.0,South,20.7,32.2,N/A,,Clear,180,2013-04-30 17:53:00
1:53 PM,84.9,57.0,38,29.64,10.0,South,26.5,33.4,N/A,,Clear,180,2013-04-30 18:53:00
2:53 PM,86.0,55.9,36,29.63,10.0,South,27.6,34.5,N/A,,Clear,170,2013-04-30 19:53:00
3:53 PM,86.0,54.0,33,29.62,10.0,SSE,27.6,36.8,N/A,,Clear,160,2013-04-30 20:53:00
4:53 PM,84.9,53.1,33,29.62,10.0,SSE,27.6,36.8,N/A,,Clear,160,2013-04-30 21:53:00
5:53 PM,84.0,54.0,35,29.61,10.0,SSE,27.6,36.8,N/A,,Clear,150,2013-04-30 22:53:00
6:53 PM,82.0,55.0,39,29.61,10.0,SSE,21.9,31.1,N/A,,Clear,160,2013-04-30 23:53:00
7:53 PM,78.1,55.9,46,29.63,10.0,SE,21.9,31.1,N/A,,Clear,140,2013-05-01 00:53:00
8:53 PM,73.9,57.9,57,29.65,10.0,SE,19.6,28.8,N/A,,Clear,140,2013-05-01 01:53:00
9:53 PM,70.0,55.9,61,29.67,10.0,SE,20.7,-,N/A,,Clear,140,2013-05-01 02:53:00
10:53 PM,69.1,57.0,65,29.69,10.0,SSE,24.2,27.6,N/A,,Clear,150,2013-05-01 03:53:00
11:53 PM,69.1,57.9,68,29.68,10.0,SSE,24.2,29.9,N/A,,Clear,150,2013-05-01 04:53:00